Aeroporto :
LOGIN :

Iscrizione | Disclaimer

   EN    FR    IT 

 










Sommario :    VFR   VFR Marginale   IFR   IFR Intensivo   IFR Molto Intensivo
Visibilità : 
Base nubi : 
>= 8 km
>= 3000ft
5 / 8 km
1000 / 3000 ft
1500m / 5 km
500 / 1000 ft
800 / 1500m
200 / 500 ft
< 800m
< 200 ft
Simboli :   Temporali  Nebbia  Neve Forte  Precipitazioni Forti  Vento > 20 kt
SIGMETs :   Varie  Temporali  Ghiacco  Turbolenza  Onda orograficha  Ceneri Vulcaniche






- Altitudine del aeroporto : 220 ft
- Codice IATA : CWL


EGFF - Cardiff Rhoose

ULTIMO METAR :
  • 080720Z AUTO 06004KT 9999 NCD 12/06 Q1025

METARs OBSOLETI :
  • 080650Z AUTO 04004KT 9999 NCD 12/05 Q1025
  • 080620Z AUTO 07005KT 9999 NCD 11/05 Q1025
  • 080550Z AUTO 06005KT 9999 NCD 11/05 Q1025
  • 080520Z AUTO 07006KT 9999 NCD 10/05 Q1025
  • 080450Z AUTO 04004KT 9999 NCD 10/05 Q1025

TAF TAF EGFF
Valido dal 08 a 06 ore il 09 a 06 ore UTC


080504Z 0806/0906 06005KT 9999 FEW045
PROB30 0902/0906 8000
ATIS : +44 1446 729 319



MetMap, La meteo Aeronautica in un colpo d'occhio ! - Copyright ORBIFLY Dicembre 2007 - Disclaimer

ORBIFLY MET'MAP TEAM :

Programmazione e sviluppo : Alexandra Zaïnal
Concezione : Baudouin d'Aumeries
Aiuto per la programmazione : Marc-Olivier Méhu
Supporto tecnico e logistico : Manuel Goepfert
Aiuto per la traduzione : Arnaldo La Scala

Contatto : metmap@orbifly.com




FONTI E CREDITI :

   NOAA